createdAt,value
2022-12-12T00:00:25.124Z,0.53
2022-12-12T00:02:54.843Z,0.53
2022-12-12T00:05:21.586Z,0.68
2022-12-12T00:07:48.142Z,0.78
2022-12-12T00:10:17.207Z,0.82
2022-12-12T00:12:43.702Z,0.68
2022-12-12T00:15:10.540Z,0.88
2022-12-12T00:17:37.330Z,1.08
2022-12-12T00:20:04.415Z,1.08
2022-12-12T00:22:30.950Z,1.04
2022-12-12T00:24:57.591Z,0.87
2022-12-12T00:27:24.131Z,0.93
2022-12-12T00:29:55.159Z,0.93
2022-12-12T00:32:22.254Z,0.85
2022-12-12T00:34:49.375Z,0.80
2022-12-12T00:37:15.994Z,0.86
2022-12-12T00:39:42.544Z,0.74
2022-12-12T00:42:09.068Z,0.75
2022-12-12T00:44:35.661Z,0.80
2022-12-12T00:47:02.902Z,0.89
2022-12-12T00:49:32.262Z,0.67
2022-12-12T00:52:01.275Z,0.62
2022-12-12T00:54:27.833Z,0.69
2022-12-12T00:56:54.390Z,0.76
2022-12-12T00:59:23.988Z,0.68
2022-12-12T01:01:50.633Z,0.48
2022-12-12T01:04:19.581Z,0.40
2022-12-12T01:06:46.856Z,0.49
2022-12-12T01:09:14.141Z,0.40
2022-12-12T01:11:40.665Z,0.37
2022-12-12T01:14:07.467Z,0.46
2022-12-12T01:16:36.286Z,0.54
2022-12-12T01:19:05.452Z,0.38
2022-12-12T01:21:34.525Z,0.59
2022-12-12T01:24:01.608Z,0.51
2022-12-12T01:26:30.710Z,0.47
2022-12-12T01:28:57.226Z,0.61
2022-12-12T01:31:23.885Z,0.51
2022-12-12T01:33:53.003Z,0.49
2022-12-12T01:36:20.790Z,0.34
2022-12-12T01:38:53.092Z,0.39
2022-12-12T01:41:20.286Z,0.46
2022-12-12T01:43:46.862Z,0.33
2022-12-12T01:46:22.599Z,0.22
2022-12-12T01:48:50.744Z,0.29
2022-12-12T01:51:19.102Z,0.29
2022-12-12T01:53:45.694Z,0.33
2022-12-12T01:56:12.915Z,0.35
2022-12-12T01:58:43.790Z,0.47
2022-12-12T02:01:10.729Z,0.47
2022-12-12T02:03:40.662Z,0.44
2022-12-12T02:06:07.959Z,0.34
2022-12-12T02:08:36.899Z,0.41
2022-12-12T02:11:08.006Z,0.37
2022-12-12T02:13:34.620Z,0.31
2022-12-12T02:16:07.898Z,0.21
2022-12-12T02:18:55.204Z,0.21
2022-12-12T02:21:24.522Z,0.12
2022-12-12T02:23:51.663Z,0.26
2022-12-12T02:26:33.196Z,0.38
2022-12-12T02:29:08.889Z,0.50
2022-12-12T02:31:41.006Z,0.61
2022-12-12T02:34:09.668Z,0.72
2022-12-12T02:36:39.342Z,0.67
2022-12-12T02:39:05.855Z,0.65
2022-12-12T02:41:32.327Z,0.66
2022-12-12T02:44:14.519Z,0.82
2022-12-12T02:46:52.831Z,0.68
2022-12-12T02:49:23.192Z,0.59
2022-12-12T02:51:52.064Z,0.57
2022-12-12T02:54:19.887Z,0.52
2022-12-12T02:56:46.467Z,0.47
2022-12-12T02:59:22.238Z,0.62
2022-12-12T03:01:54.870Z,0.76
2022-12-12T03:04:48.278Z,0.77
2022-12-12T03:07:56.551Z,0.75
2022-12-12T03:10:32.465Z,0.60
2022-12-12T03:13:04.504Z,0.49
2022-12-12T03:15:36.372Z,0.38
2022-12-12T03:18:06.036Z,0.44
2022-12-12T03:20:36.092Z,0.53
2022-12-12T03:23:03.412Z,0.44
2022-12-12T03:25:34.498Z,0.45
2022-12-12T03:28:01.004Z,0.56
2022-12-12T03:30:27.495Z,0.51
2022-12-12T03:32:58.856Z,0.60
2022-12-12T03:35:29.200Z,0.64
2022-12-12T03:37:58.402Z,0.56
2022-12-12T03:40:30.183Z,0.38
2022-12-12T03:42:59.781Z,0.35
2022-12-12T03:45:35.258Z,0.44
2022-12-12T03:48:08.327Z,0.42
2022-12-12T03:51:04.307Z,0.53
2022-12-12T03:53:37.486Z,0.63
2022-12-12T03:56:08.274Z,0.63
2022-12-12T03:58:53.286Z,0.65
2022-12-12T04:01:22.705Z,0.19
2022-12-12T04:03:56.473Z,0.15
2022-12-12T04:06:36.201Z,0.02
2022-12-12T04:09:29.570Z,-0.12
2022-12-12T04:12:21.556Z,-0.06
2022-12-12T04:15:00.300Z,-0.19
2022-12-12T04:17:32.180Z,-0.09
2022-12-12T04:20:20.564Z,-0.18
2022-12-12T04:23:10.992Z,-0.26
2022-12-12T04:26:01.208Z,-0.26
2022-12-12T04:28:27.770Z,-0.27
2022-12-12T04:30:54.620Z,-0.38
2022-12-12T04:33:21.277Z,-0.37
2022-12-12T04:35:48.373Z,-0.45
2022-12-12T04:38:19.487Z,-0.50
2022-12-12T04:40:46.883Z,-0.60
2022-12-12T04:43:19.761Z,-0.56
2022-12-12T04:45:57.110Z,-0.52
2022-12-12T04:48:29.949Z,-0.53
2022-12-12T04:50:56.490Z,-0.61
2022-12-12T04:53:29.948Z,-0.65
2022-12-12T04:56:01.852Z,-0.74
2022-12-12T04:58:28.493Z,-0.87
2022-12-12T05:01:07.829Z,-1.03
2022-12-12T05:03:39.108Z,-1.24
2022-12-12T05:06:12.534Z,-1.23
2022-12-12T05:08:43.206Z,-1.21
2022-12-12T05:11:09.796Z,-1.30
2022-12-12T05:13:38.051Z,-1.35
2022-12-12T05:16:07.533Z,-1.33
2022-12-12T05:18:34.106Z,-1.33
2022-12-12T05:21:00.656Z,-1.34
2022-12-12T05:23:31.570Z,-1.34
2022-12-12T05:26:05.699Z,-1.25
2022-12-12T05:28:32.357Z,-1.24
2022-12-12T05:30:59.353Z,-1.24
2022-12-12T05:33:26.075Z,-1.29
2022-12-12T05:35:55.079Z,-1.30
2022-12-12T05:38:25.409Z,-1.25
2022-12-12T05:40:56.944Z,-1.39
2022-12-12T05:43:23.481Z,-1.47
2022-12-12T05:45:50.269Z,-1.51
2022-12-12T05:48:22.612Z,-1.56
2022-12-12T05:50:50.897Z,-1.63
2022-12-12T05:53:17.951Z,-1.73
2022-12-12T05:55:44.464Z,-1.70
2022-12-12T05:58:11.118Z,-1.74
2022-12-12T06:00:37.701Z,-1.80
2022-12-12T06:03:04.261Z,-1.81
2022-12-12T06:05:31.043Z,-1.84
2022-12-12T06:07:57.644Z,-1.79
2022-12-12T06:10:24.315Z,-1.82
2022-12-12T06:12:53.346Z,-1.83
2022-12-12T06:15:28.152Z,-1.84
2022-12-12T06:17:55.226Z,-1.89
2022-12-12T06:20:21.845Z,-1.91
2022-12-12T06:22:53.401Z,-1.90
2022-12-12T06:25:20.645Z,-1.93
2022-12-12T06:27:47.506Z,-1.90
2022-12-12T06:30:16.574Z,-1.90
2022-12-12T06:32:43.381Z,-1.90
2022-12-12T06:35:10.276Z,-1.90
2022-12-12T06:37:37.222Z,-1.91
2022-12-12T06:40:04.465Z,-1.84
2022-12-12T06:42:31.017Z,-1.88
2022-12-12T06:44:57.584Z,-1.88
2022-12-12T06:47:24.191Z,-1.89
2022-12-12T06:49:50.828Z,-1.84
2022-12-12T06:52:19.797Z,-1.81
2022-12-12T06:54:48.691Z,-1.78
2022-12-12T06:57:17.769Z,-1.70
2022-12-12T06:59:44.586Z,-1.58
2022-12-12T07:02:13.645Z,-1.61
2022-12-12T07:04:41.380Z,-1.58
2022-12-12T07:07:07.931Z,-1.59
2022-12-12T07:09:34.561Z,-1.56
2022-12-12T07:12:03.694Z,-1.54
2022-12-12T07:14:30.321Z,-1.46
2022-12-12T07:16:56.917Z,-1.47
2022-12-12T07:19:28.009Z,-1.47
2022-12-12T07:21:57.054Z,-1.47
2022-12-12T07:24:26.063Z,-1.46
2022-12-12T07:26:52.663Z,-1.43
2022-12-12T07:29:19.217Z,-1.40
2022-12-12T07:31:45.785Z,-1.36
2022-12-12T07:34:15.360Z,-1.33
2022-12-12T07:36:44.478Z,-1.36
2022-12-12T07:39:13.560Z,-1.15
2022-12-12T07:41:43.800Z,-1.06
2022-12-12T07:44:10.313Z,-1.05
2022-12-12T07:46:39.216Z,-0.96
2022-12-12T07:49:05.833Z,-0.93
2022-12-12T07:51:32.519Z,-0.92
2022-12-12T07:53:59.077Z,-0.98
2022-12-12T07:56:25.705Z,-0.98
2022-12-12T07:58:53.396Z,-1.04
2022-12-12T08:01:21.372Z,-0.94
2022-12-12T08:03:48.181Z,-0.87
2022-12-12T08:06:16.327Z,-0.72
2022-12-12T08:08:45.756Z,-0.57
2022-12-12T08:11:13.528Z,-0.46
2022-12-12T08:13:40.487Z,-0.45
2022-12-12T08:16:08.056Z,-0.42
2022-12-12T08:18:40.106Z,-0.22
2022-12-12T08:21:09.308Z,-0.10
2022-12-12T08:23:36.205Z,-0.15
2022-12-12T08:26:14.819Z,-0.14
2022-12-12T08:28:49.838Z,-0.30
2022-12-12T08:31:16.979Z,-0.44
2022-12-12T08:33:43.928Z,-0.56
2022-12-12T08:36:11.348Z,-0.50
2022-12-12T08:38:37.905Z,-0.40
2022-12-12T08:41:04.681Z,-0.37
2022-12-12T08:43:31.736Z,-0.41
2022-12-12T08:46:01.892Z,-0.42
2022-12-12T08:48:30.917Z,-0.22
2022-12-12T08:50:57.691Z,-0.17
2022-12-12T08:53:24.545Z,-0.12
2022-12-12T08:55:51.135Z,-0.13
2022-12-12T08:58:17.730Z,0.04
2022-12-12T09:00:44.520Z,0.11
2022-12-12T09:03:13.985Z,-0.02
2022-12-12T09:05:44.530Z,0.10
2022-12-12T09:08:11.714Z,0.04
2022-12-12T09:10:42.231Z,0.13
2022-12-12T09:13:08.997Z,0.00
2022-12-12T09:15:38.431Z,-0.07
2022-12-12T09:18:05.336Z,-0.10
2022-12-12T09:20:34.364Z,0.06
2022-12-12T09:23:00.951Z,0.08
2022-12-12T09:25:27.674Z,0.34
2022-12-12T09:27:54.318Z,0.47
2022-12-12T09:30:23.365Z,0.50
2022-12-12T09:32:49.959Z,0.42
2022-12-12T09:35:18.791Z,0.39
2022-12-12T09:37:45.364Z,0.47
2022-12-12T09:40:16.670Z,0.60
2022-12-12T09:42:49.553Z,0.46
2022-12-12T09:45:16.342Z,0.39
2022-12-12T09:47:43.597Z,0.40
2022-12-12T09:50:25.516Z,0.34
2022-12-12T09:52:52.754Z,0.39
2022-12-12T09:55:38.196Z,0.47
2022-12-12T09:58:07.060Z,0.51
2022-12-12T10:00:36.645Z,0.43
2022-12-12T10:03:35.858Z,0.52
2022-12-12T10:06:35.874Z,0.49
2022-12-12T10:09:11.735Z,0.27
2022-12-12T10:11:51.949Z,0.09
2022-12-12T10:14:34.491Z,-0.03
2022-12-12T10:17:01.641Z,-0.03
2022-12-12T10:19:31.667Z,-0.11
2022-12-12T10:22:00.806Z,-0.18
2022-12-12T10:24:27.345Z,-0.09
2022-12-12T10:26:54.551Z,-0.03
2022-12-12T10:29:22.083Z,0.03
2022-12-12T10:32:05.889Z,0.22
2022-12-12T10:34:38.703Z,0.33
2022-12-12T10:37:16.030Z,0.22
2022-12-12T10:39:47.803Z,0.23
2022-12-12T10:42:23.548Z,0.22
2022-12-12T10:45:00.717Z,0.34
2022-12-12T10:47:29.654Z,0.35
2022-12-12T10:50:03.045Z,0.17
2022-12-12T10:52:39.970Z,0.30
2022-12-12T10:55:09.218Z,0.47
2022-12-12T10:57:35.812Z,0.42
2022-12-12T11:00:15.590Z,0.41
2022-12-12T11:02:44.015Z,0.45
2022-12-12T11:05:26.881Z,0.39
2022-12-12T11:08:06.733Z,0.49
2022-12-12T11:10:36.215Z,0.44
2022-12-12T11:13:08.938Z,0.42
2022-12-12T11:15:46.888Z,0.47
2022-12-12T11:18:16.939Z,0.11
2022-12-12T11:20:45.604Z,-0.01
2022-12-12T11:23:45.799Z,-0.07
2022-12-12T11:26:13.581Z,-0.31
2022-12-12T11:28:40.241Z,-0.43
2022-12-12T11:31:17.570Z,-0.46
2022-12-12T11:33:48.667Z,-0.50
2022-12-12T11:36:15.680Z,-0.61
2022-12-12T11:38:46.873Z,-0.44
2022-12-12T11:41:14.283Z,-0.01
2022-12-12T11:43:49.358Z,0.22
2022-12-12T11:46:15.981Z,0.35
2022-12-12T11:48:42.535Z,0.56
2022-12-12T11:51:09.116Z,0.76
2022-12-12T11:53:39.930Z,0.58
2022-12-12T11:56:08.840Z,0.40
2022-12-12T11:58:35.382Z,0.64
2022-12-12T12:01:06.322Z,0.72
2022-12-12T12:03:38.400Z,1.30
2022-12-12T12:06:11.891Z,1.02
2022-12-12T12:08:49.927Z,0.64
2022-12-12T12:11:36.113Z,0.29
2022-12-12T12:14:06.004Z,0.32
2022-12-12T12:16:32.716Z,0.47
2022-12-12T12:19:01.637Z,0.59
2022-12-12T12:21:46.629Z,0.48
2022-12-12T12:24:18.711Z,0.13
2022-12-12T12:27:04.400Z,0.19
2022-12-12T12:30:10.068Z,0.18
2022-12-12T12:32:55.616Z,0.19
2022-12-12T12:35:24.692Z,-0.04
2022-12-12T12:38:06.937Z,-0.13
2022-12-12T12:40:52.381Z,-0.28
2022-12-12T12:43:19.471Z,-0.47
2022-12-12T12:45:57.597Z,-0.51
2022-12-12T12:48:27.300Z,-0.43
2022-12-12T12:51:03.079Z,-0.35
2022-12-12T12:53:37.110Z,-0.20
2022-12-12T12:56:08.094Z,-0.04
2022-12-12T12:58:42.144Z,0.26
2022-12-12T13:01:13.198Z,0.54
2022-12-12T13:03:52.068Z,0.78
2022-12-12T13:06:20.352Z,0.69
2022-12-12T13:08:47.008Z,0.80
2022-12-12T13:11:28.814Z,0.83
2022-12-12T13:13:56.380Z,0.59
2022-12-12T13:16:23.471Z,0.45
2022-12-12T13:18:55.698Z,0.36
2022-12-12T13:21:41.075Z,0.15
2022-12-12T13:24:14.221Z,-0.11
2022-12-12T13:26:56.261Z,-0.21
2022-12-12T13:29:35.595Z,-0.45
2022-12-12T13:32:11.674Z,-0.50
2022-12-12T13:34:41.341Z,-0.45
2022-12-12T13:37:07.981Z,-0.48
2022-12-12T13:39:35.851Z,-0.66
2022-12-12T13:42:06.619Z,-0.68
2022-12-12T13:44:44.523Z,-0.70
2022-12-12T13:47:23.980Z,-0.77
2022-12-12T13:49:56.484Z,-0.79
2022-12-12T13:52:30.882Z,-0.77
2022-12-12T13:55:20.140Z,-0.79
2022-12-12T13:58:08.196Z,-0.76
2022-12-12T14:00:35.644Z,-0.81
2022-12-12T14:03:13.421Z,-0.78
2022-12-12T14:05:43.285Z,-0.76
2022-12-12T14:08:09.884Z,-0.80
2022-12-12T14:10:39.972Z,-0.86
2022-12-12T14:13:33.568Z,-0.91
2022-12-12T14:16:05.203Z,-0.91
2022-12-12T14:18:38.026Z,-0.87
2022-12-12T14:21:08.204Z,-0.77
2022-12-12T14:23:35.961Z,-0.82
2022-12-12T14:26:02.738Z,-0.81
2022-12-12T14:28:30.143Z,-0.80
2022-12-12T14:30:59.806Z,-0.86
2022-12-12T14:33:32.626Z,-0.84
2022-12-12T14:36:03.900Z,-0.92
2022-12-12T14:38:34.972Z,-0.95
2022-12-12T14:41:05.119Z,-0.94
2022-12-12T14:43:35.984Z,-0.95
2022-12-12T14:46:02.758Z,-1.00
2022-12-12T14:48:29.368Z,-0.97
2022-12-12T14:50:59.249Z,-0.98
2022-12-12T14:53:27.834Z,-0.91
2022-12-12T14:55:58.696Z,-0.91
2022-12-12T14:58:27.499Z,-0.91
2022-12-12T15:00:58.111Z,-0.88
2022-12-12T15:03:51.128Z,-0.81
2022-12-12T15:06:27.649Z,-0.70
2022-12-12T15:08:55.107Z,-0.71
2022-12-12T15:11:26.526Z,-0.76
2022-12-12T15:13:57.106Z,-0.71
2022-12-12T15:16:31.912Z,-0.55
2022-12-12T15:18:58.935Z,-0.37
2022-12-12T15:21:25.566Z,-0.31
2022-12-12T15:23:52.557Z,-0.20
2022-12-12T15:26:21.842Z,-0.20
2022-12-12T15:28:51.434Z,-0.13
2022-12-12T15:31:20.564Z,0.05
2022-12-12T15:33:51.903Z,0.18
2022-12-12T15:36:27.730Z,0.07
2022-12-12T15:39:07.075Z,-0.02
2022-12-12T15:41:34.107Z,-0.03
2022-12-12T15:44:01.393Z,-0.06
2022-12-12T15:46:29.981Z,-0.01
2022-12-12T15:48:56.855Z,0.13
2022-12-12T15:51:25.476Z,0.19
2022-12-12T15:53:57.049Z,0.10
2022-12-12T15:56:27.767Z,0.05
2022-12-12T15:59:15.456Z,0.19
2022-12-12T16:01:42.362Z,0.14
2022-12-12T16:04:10.694Z,0.03
2022-12-12T16:06:38.389Z,0.10
2022-12-12T16:09:09.835Z,0.05
2022-12-12T16:11:37.769Z,-0.05
2022-12-12T16:14:05.158Z,-0.11
2022-12-12T16:16:40.211Z,-0.19
2022-12-12T16:19:16.574Z,-0.33
2022-12-12T16:21:43.145Z,-0.40
2022-12-12T16:24:21.136Z,-0.49
2022-12-12T16:26:51.025Z,-0.64
2022-12-12T16:29:17.666Z,-0.60
2022-12-12T16:31:45.381Z,-0.54
2022-12-12T16:34:14.509Z,-0.45
2022-12-12T16:36:43.624Z,-0.39
2022-12-12T16:39:13.909Z,-0.32
2022-12-12T16:41:43.150Z,-0.29
2022-12-12T16:44:09.749Z,-0.24
2022-12-12T16:46:37.157Z,-0.04
2022-12-12T16:49:05.518Z,0.01
2022-12-12T16:51:38.477Z,0.19
2022-12-12T16:54:05.107Z,0.14
2022-12-12T16:56:31.711Z,0.17
2022-12-12T16:58:58.296Z,0.26
2022-12-12T17:01:25.010Z,0.30
2022-12-12T17:03:52.008Z,0.27
2022-12-12T17:06:18.670Z,0.31
2022-12-12T17:08:45.262Z,0.23
2022-12-12T17:11:15.000Z,0.31
2022-12-12T17:13:46.721Z,0.30
2022-12-12T17:16:14.954Z,0.28
2022-12-12T17:18:41.741Z,0.25
2022-12-12T17:21:11.112Z,0.35
2022-12-12T17:23:37.755Z,0.53
2022-12-12T17:26:05.623Z,0.66
2022-12-12T17:28:37.767Z,0.70
2022-12-12T17:31:11.067Z,0.66
2022-12-12T17:33:46.211Z,0.74
2022-12-12T17:36:16.433Z,0.63
2022-12-12T17:38:43.308Z,0.38
2022-12-12T17:41:10.903Z,0.36
2022-12-12T17:43:37.752Z,0.19
2022-12-12T17:46:08.265Z,0.09
2022-12-12T17:48:37.779Z,0.10
2022-12-12T17:51:07.278Z,0.01
2022-12-12T17:53:40.271Z,-0.09
2022-12-12T17:56:07.719Z,-0.14
2022-12-12T17:58:38.423Z,-0.16
2022-12-12T18:01:14.530Z,-0.33
2022-12-12T18:03:44.738Z,-0.50
2022-12-12T18:06:11.540Z,-0.59
2022-12-12T18:08:38.262Z,-0.65
2022-12-12T18:11:09.029Z,-0.67
2022-12-12T18:13:41.351Z,-0.75
2022-12-12T18:16:11.597Z,-0.75
2022-12-12T18:18:38.630Z,-0.80
2022-12-12T18:21:42.895Z,-0.68
2022-12-12T18:24:02.111Z,-0.64
2022-12-12T18:26:31.200Z,-0.69
2022-12-12T18:28:59.106Z,-0.64
2022-12-12T18:31:30.028Z,-0.62
2022-12-12T18:33:56.747Z,-0.63
2022-12-12T18:36:26.914Z,-0.69
2022-12-12T18:38:56.117Z,-0.69
2022-12-12T18:41:22.777Z,-0.68
2022-12-12T18:43:49.566Z,-0.71
2022-12-12T18:46:18.015Z,-0.74
2022-12-12T18:48:45.347Z,-0.69
2022-12-12T18:51:11.938Z,-0.75
2022-12-12T18:53:44.218Z,-0.72
2022-12-12T18:56:12.115Z,-0.62
2022-12-12T18:58:38.677Z,-0.63
2022-12-12T19:01:12.003Z,-0.58
2022-12-12T19:03:39.397Z,-0.46
2022-12-12T19:06:06.774Z,-0.34
2022-12-12T19:08:36.016Z,-0.31
2022-12-12T19:11:06.341Z,-0.29
2022-12-12T19:13:35.195Z,-0.28
2022-12-12T19:16:05.376Z,-0.31
2022-12-12T19:18:32.052Z,-0.31
2022-12-12T19:21:03.196Z,-0.32
2022-12-12T19:23:32.312Z,-0.24
2022-12-12T19:26:07.377Z,-0.12
2022-12-12T19:28:34.305Z,-0.04
2022-12-12T19:31:11.182Z,-0.09
2022-12-12T19:33:37.964Z,-0.13
2022-12-12T19:36:10.838Z,-0.12
2022-12-12T19:38:37.370Z,-0.18
2022-12-12T19:41:04.820Z,-0.21
2022-12-12T19:43:31.528Z,-0.40
2022-12-12T19:46:05.090Z,-0.40
2022-12-12T19:48:35.252Z,-0.40
2022-12-12T19:51:32.591Z,-0.38
2022-12-12T19:53:59.776Z,-0.57
2022-12-12T19:56:27.480Z,-0.65
2022-12-12T19:58:56.920Z,-0.67
2022-12-12T20:01:25.196Z,-0.59
2022-12-12T20:03:55.828Z,-0.56
2022-12-12T20:06:22.835Z,-0.36
2022-12-12T20:08:50.366Z,-0.16
2022-12-12T20:11:20.895Z,0.03
2022-12-12T20:13:49.425Z,0.26
2022-12-12T20:16:17.207Z,0.27
2022-12-12T20:18:44.567Z,0.25
2022-12-12T20:21:29.862Z,0.18
2022-12-12T20:24:01.508Z,0.13
2022-12-12T20:26:31.124Z,0.18
2022-12-12T20:28:59.589Z,-0.01
2022-12-12T20:31:31.230Z,-0.19
2022-12-12T20:33:58.535Z,-0.22
2022-12-12T20:36:29.386Z,-0.31
2022-12-12T20:38:56.876Z,-0.34
2022-12-12T20:41:27.621Z,-0.40
2022-12-12T20:43:57.417Z,-0.35
2022-12-12T20:46:25.550Z,-0.38
2022-12-12T20:48:52.409Z,-0.28
2022-12-12T20:51:53.522Z,-0.30
2022-12-12T20:54:08.468Z,-0.29
2022-12-12T20:56:40.320Z,-0.20
2022-12-12T20:59:20.059Z,-0.26
2022-12-12T21:01:47.444Z,-0.29
2022-12-12T21:04:16.652Z,-0.21
2022-12-12T21:06:48.153Z,-0.17
2022-12-12T21:09:22.631Z,-0.14
2022-12-12T21:11:50.098Z,-0.02
2022-12-12T21:14:16.619Z,0.10
2022-12-12T21:16:43.383Z,0.14
2022-12-12T21:19:11.561Z,0.22
2022-12-12T21:21:38.895Z,0.25
2022-12-12T21:24:07.941Z,0.20
2022-12-12T21:26:36.825Z,0.31
2022-12-12T21:29:06.092Z,0.48
2022-12-12T21:31:36.988Z,0.71
2022-12-12T21:34:04.048Z,0.83
2022-12-12T21:36:30.692Z,0.81
2022-12-12T21:38:58.053Z,0.85
2022-12-12T21:41:24.712Z,0.73
2022-12-12T21:43:52.143Z,0.55
2022-12-12T21:46:22.065Z,0.48
2022-12-12T21:49:11.398Z,0.43
2022-12-12T21:51:41.098Z,0.35
2022-12-12T21:54:14.740Z,0.30
2022-12-12T21:56:42.356Z,0.33
2022-12-12T21:59:12.702Z,0.28
2022-12-12T22:01:39.401Z,0.21
2022-12-12T22:04:08.318Z,0.18
2022-12-12T22:06:37.737Z,0.32
2022-12-12T22:09:05.409Z,0.27
2022-12-12T22:11:41.328Z,0.12
2022-12-12T22:14:19.478Z,0.22
2022-12-12T22:16:46.181Z,0.25
2022-12-12T22:19:13.607Z,0.32
2022-12-12T22:21:40.235Z,0.40
2022-12-12T22:24:06.986Z,0.43
2022-12-12T22:26:34.738Z,0.37
2022-12-12T22:29:02.139Z,0.33
2022-12-12T22:31:33.066Z,0.35
2022-12-12T22:34:00.541Z,0.41
2022-12-12T22:36:31.140Z,0.24
2022-12-12T22:38:58.105Z,0.36
2022-12-12T22:41:25.136Z,0.32
2022-12-12T22:43:55.432Z,0.24
2022-12-12T22:46:22.640Z,0.07
2022-12-12T22:48:49.300Z,-0.06
2022-12-12T22:51:20.103Z,-0.04
2022-12-12T22:53:46.679Z,-0.22
2022-12-12T22:56:13.467Z,-0.30
2022-12-12T22:58:40.340Z,-0.37
2022-12-12T23:01:16.407Z,-0.34
2022-12-12T23:03:43.128Z,-0.37
2022-12-12T23:06:11.151Z,-0.41
2022-12-12T23:08:38.074Z,-0.41
2022-12-12T23:11:08.953Z,-0.39
2022-12-12T23:13:35.532Z,-0.33
2022-12-12T23:16:11.098Z,-0.28
2022-12-12T23:18:38.286Z,-0.25
2022-12-12T23:21:05.797Z,-0.26
2022-12-12T23:23:35.044Z,-0.32
2022-12-12T23:26:07.671Z,-0.33
2022-12-12T23:28:34.545Z,-0.25
2022-12-12T23:31:03.455Z,-0.25
2022-12-12T23:33:30.051Z,-0.29
2022-12-12T23:35:56.674Z,-0.19
2022-12-12T23:38:23.214Z,-0.13
2022-12-12T23:40:49.909Z,-0.10
2022-12-12T23:43:16.540Z,-0.25
2022-12-12T23:45:43.925Z,-0.20
2022-12-12T23:48:10.594Z,-0.16
2022-12-12T23:50:37.107Z,-0.18
2022-12-12T23:53:10.483Z,-0.17
2022-12-12T23:55:37.314Z,-0.17
2022-12-12T23:58:06.680Z,-0.13
